Forside
METAR-TAF:

METAR-TAF

Lufthavne :

Malé, Maldiverne

Breddekreds: 04-12N, længdekreds: 073-32E, højde: 2 m

Aktuelle vejr

Denne rapport blev lavet for 1 time og 20 minutter siden, kl. 16:00 UTC
Vind 8 kt fra vestnordvest
Temperatur 29°C
Fugtighed 74%
Tryk 1010 hPa
Sigt 10 km eller mere
Nogle få skyer i en højde af 1800 ft
Brudte skyer i en højde af 12000 ft

METAR: VRMM 251600Z 30008KT 9999 FEW018 BKN120 29/24 Q1010 NOSIG

Tid: 22:20 (17:20 UTC)

Vejrudsigter

Denne rapport blev lavet for 6 timer og 20 minutter siden, kl. 11:00 UTC
Foreløbig gælder fra 25 på 12 UTC til 26 på 18 UTC
Vind 12 kt fra vestnordvest
Sigt 10 km eller mere
Nogle få skyer i en højde af 1800 ft, Optårnet Cumulus.
Midlertidig
fra 25 på 12 UTC til 25 på 18 UTC
Nogle få skyer i en højde af 1800 ft, Cumulonimbus.

TAF: VRMM 251100Z 2512/2618 29012KT 9999 FEW018TCU TEMPO 2512/2518 FEW018CB

Vejrobservationer og prognoser fra mere end 4000 lufthavne (METAR og TAF).

De gule og røde prikker repræsenterer de meteorologiske stationer.

Flyt musen over at se navnet på stationen.

Så klik over at se vejr observationer og prognoser.

At skifte det kort: Klik på de grønne knapper med et sort kors for at zoome ind; på den grønne knap med en bindestreg for at zoome ud; eller på de grønne pile for tilstødende kort.


METAR-TAF: